sensor_id;sensor_type;location;lat;lon;timestamp;P1;durP1;ratioP1;P2;durP2;ratioP2
10719;SDS011;5411;58.386;15.560;2023-08-30T00:00:40;4.30;;;2.60;;
10719;SDS011;5411;58.386;15.560;2023-08-30T00:03:10;3.83;;;2.43;;
10719;SDS011;5411;58.386;15.560;2023-08-30T00:05:41;4.30;;;2.37;;
10719;SDS011;5411;58.386;15.560;2023-08-30T00:08:11;4.87;;;2.97;;
10719;SDS011;5411;58.386;15.560;2023-08-30T00:10:44;4.50;;;2.90;;
10719;SDS011;5411;58.386;15.560;2023-08-30T00:13:13;4.53;;;2.20;;
10719;SDS011;5411;58.386;15.560;2023-08-30T00:15:41;5.27;;;2.70;;
10719;SDS011;5411;58.386;15.560;2023-08-30T00:18:11;5.80;;;2.30;;
10719;SDS011;5411;58.386;15.560;2023-08-30T00:20:40;5.87;;;2.87;;
10719;SDS011;5411;58.386;15.560;2023-08-30T00:23:08;3.03;;;2.30;;
10719;SDS011;5411;58.386;15.560;2023-08-30T00:25:37;4.20;;;2.70;;
10719;SDS011;5411;58.386;15.560;2023-08-30T00:28:08;3.93;;;2.47;;
10719;SDS011;5411;58.386;15.560;2023-08-30T00:30:39;4.37;;;2.60;;
10719;SDS011;5411;58.386;15.560;2023-08-30T00:33:07;3.70;;;2.63;;
10719;SDS011;5411;58.386;15.560;2023-08-30T00:35:38;3.73;;;2.70;;
10719;SDS011;5411;58.386;15.560;2023-08-30T00:38:07;3.20;;;2.70;;
10719;SDS011;5411;58.386;15.560;2023-08-30T00:40:38;4.53;;;2.47;;
10719;SDS011;5411;58.386;15.560;2023-08-30T00:43:07;2.60;;;2.27;;
10719;SDS011;5411;58.386;15.560;2023-08-30T00:45:37;3.63;;;2.47;;
10719;SDS011;5411;58.386;15.560;2023-08-30T00:48:07;3.90;;;2.57;;
10719;SDS011;5411;58.386;15.560;2023-08-30T00:50:37;4.77;;;2.77;;
10719;SDS011;5411;58.386;15.560;2023-08-30T00:53:07;4.37;;;2.47;;
10719;SDS011;5411;58.386;15.560;2023-08-30T00:55:37;3.03;;;2.53;;
10719;SDS011;5411;58.386;15.560;2023-08-30T00:58:07;5.47;;;2.90;;
10719;SDS011;5411;58.386;15.560;2023-08-30T01:00:40;4.00;;;2.40;;
10719;SDS011;5411;58.386;15.560;2023-08-30T01:03:08;3.17;;;2.57;;
10719;SDS011;5411;58.386;15.560;2023-08-30T01:05:38;5.00;;;2.80;;
10719;SDS011;5411;58.386;15.560;2023-08-30T01:08:06;3.73;;;2.43;;
10719;SDS011;5411;58.386;15.560;2023-08-30T01:10:38;4.67;;;2.73;;
10719;SDS011;5411;58.386;15.560;2023-08-30T01:13:16;5.27;;;3.23;;
10719;SDS011;5411;58.386;15.560;2023-08-30T01:15:47;4.47;;;2.77;;
10719;SDS011;5411;58.386;15.560;2023-08-30T01:18:19;3.10;;;2.40;;
10719;SDS011;5411;58.386;15.560;2023-08-30T01:20:51;3.73;;;2.60;;
10719;SDS011;5411;58.386;15.560;2023-08-30T01:23:24;5.23;;;2.80;;
10719;SDS011;5411;58.386;15.560;2023-08-30T01:26:03;3.97;;;2.57;;
10719;SDS011;5411;58.386;15.560;2023-08-30T01:28:37;6.03;;;2.70;;
10719;SDS011;5411;58.386;15.560;2023-08-30T01:31:07;3.23;;;2.97;;
10719;SDS011;5411;58.386;15.560;2023-08-30T01:33:38;3.17;;;2.60;;
10719;SDS011;5411;58.386;15.560;2023-08-30T01:36:09;7.70;;;2.50;;
10719;SDS011;5411;58.386;15.560;2023-08-30T01:38:40;5.30;;;2.57;;
10719;SDS011;5411;58.386;15.560;2023-08-30T01:41:09;4.27;;;2.87;;
10719;SDS011;5411;58.386;15.560;2023-08-30T01:43:40;4.43;;;2.80;;
10719;SDS011;5411;58.386;15.560;2023-08-30T01:46:12;4.60;;;2.80;;
10719;SDS011;5411;58.386;15.560;2023-08-30T01:48:42;3.67;;;2.70;;
10719;SDS011;5411;58.386;15.560;2023-08-30T01:51:11;9.23;;;2.70;;
10719;SDS011;5411;58.386;15.560;2023-08-30T01:53:44;4.77;;;2.87;;
10719;SDS011;5411;58.386;15.560;2023-08-30T01:56:14;5.03;;;2.70;;
10719;SDS011;5411;58.386;15.560;2023-08-30T01:58:43;6.07;;;2.93;;
10719;SDS011;5411;58.386;15.560;2023-08-30T02:01:11;4.10;;;3.17;;
10719;SDS011;5411;58.386;15.560;2023-08-30T02:03:43;4.43;;;2.97;;
10719;SDS011;5411;58.386;15.560;2023-08-30T02:06:11;3.53;;;2.60;;
10719;SDS011;5411;58.386;15.560;2023-08-30T02:08:48;6.00;;;2.73;;
10719;SDS011;5411;58.386;15.560;2023-08-30T02:11:23;3.93;;;2.63;;
10719;SDS011;5411;58.386;15.560;2023-08-30T02:13:57;3.40;;;2.30;;
10719;SDS011;5411;58.386;15.560;2023-08-30T02:16:26;3.17;;;2.67;;
10719;SDS011;5411;58.386;15.560;2023-08-30T02:18:56;3.10;;;2.40;;
10719;SDS011;5411;58.386;15.560;2023-08-30T02:21:25;5.67;;;3.00;;
10719;SDS011;5411;58.386;15.560;2023-08-30T02:23:54;3.47;;;3.00;;
10719;SDS011;5411;58.386;15.560;2023-08-30T02:26:22;4.43;;;2.87;;
10719;SDS011;5411;58.386;15.560;2023-08-30T02:28:51;3.30;;;2.80;;
10719;SDS011;5411;58.386;15.560;2023-08-30T02:31:20;4.47;;;2.50;;
10719;SDS011;5411;58.386;15.560;2023-08-30T02:33:49;5.90;;;3.07;;
10719;SDS011;5411;58.386;15.560;2023-08-30T02:36:18;6.50;;;2.90;;
10719;SDS011;5411;58.386;15.560;2023-08-30T02:38:46;4.73;;;3.13;;
10719;SDS011;5411;58.386;15.560;2023-08-30T02:41:14;3.37;;;2.50;;
10719;SDS011;5411;58.386;15.560;2023-08-30T02:43:45;3.07;;;2.60;;
10719;SDS011;5411;58.386;15.560;2023-08-30T02:46:13;4.63;;;3.30;;
10719;SDS011;5411;58.386;15.560;2023-08-30T02:48:43;3.60;;;2.80;;
10719;SDS011;5411;58.386;15.560;2023-08-30T02:51:11;4.93;;;2.63;;
10719;SDS011;5411;58.386;15.560;2023-08-30T02:53:43;6.43;;;2.50;;
10719;SDS011;5411;58.386;15.560;2023-08-30T02:56:11;4.43;;;2.73;;
10719;SDS011;5411;58.386;15.560;2023-08-30T02:58:40;4.90;;;2.80;;
10719;SDS011;5411;58.386;15.560;2023-08-30T03:01:09;3.37;;;2.73;;
10719;SDS011;5411;58.386;15.560;2023-08-30T03:03:45;6.10;;;3.30;;
10719;SDS011;5411;58.386;15.560;2023-08-30T03:06:13;3.93;;;2.67;;
10719;SDS011;5411;58.386;15.560;2023-08-30T03:08:42;6.07;;;3.40;;
10719;SDS011;5411;58.386;15.560;2023-08-30T03:11:10;5.80;;;2.70;;
10719;SDS011;5411;58.386;15.560;2023-08-30T03:13:39;4.17;;;3.00;;
10719;SDS011;5411;58.386;15.560;2023-08-30T03:16:11;4.90;;;2.77;;
10719;SDS011;5411;58.386;15.560;2023-08-30T03:18:41;5.53;;;3.30;;
10719;SDS011;5411;58.386;15.560;2023-08-30T03:21:14;4.50;;;3.30;;
10719;SDS011;5411;58.386;15.560;2023-08-30T03:23:43;4.70;;;3.57;;
10719;SDS011;5411;58.386;15.560;2023-08-30T03:26:12;6.50;;;3.27;;
10719;SDS011;5411;58.386;15.560;2023-08-30T03:28:42;7.33;;;3.40;;
10719;SDS011;5411;58.386;15.560;2023-08-30T03:31:14;5.40;;;2.97;;
10719;SDS011;5411;58.386;15.560;2023-08-30T03:33:44;5.40;;;3.60;;
10719;SDS011;5411;58.386;15.560;2023-08-30T03:36:12;3.83;;;2.83;;
10719;SDS011;5411;58.386;15.560;2023-08-30T03:38:44;4.90;;;3.20;;
10719;SDS011;5411;58.386;15.560;2023-08-30T03:41:13;3.83;;;2.53;;
10719;SDS011;5411;58.386;15.560;2023-08-30T03:43:41;3.63;;;2.70;;
10719;SDS011;5411;58.386;15.560;2023-08-30T03:46:12;5.27;;;3.17;;
10719;SDS011;5411;58.386;15.560;2023-08-30T03:48:41;5.43;;;2.77;;
10719;SDS011;5411;58.386;15.560;2023-08-30T03:51:10;5.33;;;3.03;;
10719;SDS011;5411;58.386;15.560;2023-08-30T03:53:40;5.80;;;3.23;;
10719;SDS011;5411;58.386;15.560;2023-08-30T03:56:09;5.50;;;2.80;;
10719;SDS011;5411;58.386;15.560;2023-08-30T03:58:39;4.10;;;2.97;;
10719;SDS011;5411;58.386;15.560;2023-08-30T04:01:08;5.73;;;3.00;;
10719;SDS011;5411;58.386;15.560;2023-08-30T04:03:37;4.33;;;2.93;;
10719;SDS011;5411;58.386;15.560;2023-08-30T04:06:06;4.97;;;2.90;;
10719;SDS011;5411;58.386;15.560;2023-08-30T04:08:36;6.10;;;3.03;;
10719;SDS011;5411;58.386;15.560;2023-08-30T04:11:06;2.67;;;2.47;;
10719;SDS011;5411;58.386;15.560;2023-08-30T04:13:33;7.07;;;2.70;;
10719;SDS011;5411;58.386;15.560;2023-08-30T04:16:02;3.40;;;2.80;;
10719;SDS011;5411;58.386;15.560;2023-08-30T04:18:30;3.87;;;3.00;;
10719;SDS011;5411;58.386;15.560;2023-08-30T04:20:59;5.33;;;2.80;;
10719;SDS011;5411;58.386;15.560;2023-08-30T04:23:29;5.00;;;2.80;;
10719;SDS011;5411;58.386;15.560;2023-08-30T04:25:57;4.50;;;2.63;;
10719;SDS011;5411;58.386;15.560;2023-08-30T04:28:27;6.17;;;2.93;;
10719;SDS011;5411;58.386;15.560;2023-08-30T04:30:55;4.33;;;3.00;;
10719;SDS011;5411;58.386;15.560;2023-08-30T04:33:26;6.97;;;2.93;;
10719;SDS011;5411;58.386;15.560;2023-08-30T04:35:54;4.33;;;3.57;;
10719;SDS011;5411;58.386;15.560;2023-08-30T04:38:23;7.37;;;3.87;;
10719;SDS011;5411;58.386;15.560;2023-08-30T04:40:56;4.47;;;3.03;;
10719;SDS011;5411;58.386;15.560;2023-08-30T04:43:27;3.47;;;3.07;;
10719;SDS011;5411;58.386;15.560;2023-08-30T04:45:57;5.83;;;3.33;;
10719;SDS011;5411;58.386;15.560;2023-08-30T04:48:25;4.77;;;3.10;;
10719;SDS011;5411;58.386;15.560;2023-08-30T04:51:00;8.33;;;3.03;;
10719;SDS011;5411;58.386;15.560;2023-08-30T04:53:34;4.90;;;3.60;;
10719;SDS011;5411;58.386;15.560;2023-08-30T04:56:10;4.57;;;3.10;;
10719;SDS011;5411;58.386;15.560;2023-08-30T04:58:40;4.83;;;3.17;;
10719;SDS011;5411;58.386;15.560;2023-08-30T05:01:10;3.23;;;2.93;;
10719;SDS011;5411;58.386;15.560;2023-08-30T05:03:40;7.53;;;3.43;;
10719;SDS011;5411;58.386;15.560;2023-08-30T05:06:08;7.33;;;3.10;;
10719;SDS011;5411;58.386;15.560;2023-08-30T05:08:38;6.30;;;3.10;;
10719;SDS011;5411;58.386;15.560;2023-08-30T05:11:07;5.37;;;3.00;;
10719;SDS011;5411;58.386;15.560;2023-08-30T05:13:35;5.13;;;3.20;;
10719;SDS011;5411;58.386;15.560;2023-08-30T05:16:05;3.97;;;2.77;;
10719;SDS011;5411;58.386;15.560;2023-08-30T05:18:33;5.73;;;2.93;;
10719;SDS011;5411;58.386;15.560;2023-08-30T05:21:01;5.27;;;3.23;;
10719;SDS011;5411;58.386;15.560;2023-08-30T05:23:31;4.67;;;2.93;;
10719;SDS011;5411;58.386;15.560;2023-08-30T05:25:59;8.37;;;3.30;;
10719;SDS011;5411;58.386;15.560;2023-08-30T05:28:27;5.17;;;3.13;;
10719;SDS011;5411;58.386;15.560;2023-08-30T05:30:56;5.87;;;3.07;;
10719;SDS011;5411;58.386;15.560;2023-08-30T05:33:26;3.90;;;3.47;;
10719;SDS011;5411;58.386;15.560;2023-08-30T05:35:56;9.37;;;3.70;;
10719;SDS011;5411;58.386;15.560;2023-08-30T05:38:27;5.57;;;3.40;;
10719;SDS011;5411;58.386;15.560;2023-08-30T05:40:56;6.00;;;3.77;;
10719;SDS011;5411;58.386;15.560;2023-08-30T05:43:24;4.20;;;3.30;;
10719;SDS011;5411;58.386;15.560;2023-08-30T05:45:53;6.43;;;3.20;;
10719;SDS011;5411;58.386;15.560;2023-08-30T05:48:21;8.63;;;3.10;;
10719;SDS011;5411;58.386;15.560;2023-08-30T05:50:51;11.77;;;3.30;;
10719;SDS011;5411;58.386;15.560;2023-08-30T05:53:22;6.20;;;3.37;;
10719;SDS011;5411;58.386;15.560;2023-08-30T05:55:50;6.93;;;3.23;;
10719;SDS011;5411;58.386;15.560;2023-08-30T05:58:18;5.43;;;3.30;;
10719;SDS011;5411;58.386;15.560;2023-08-30T06:00:47;5.00;;;3.27;;
10719;SDS011;5411;58.386;15.560;2023-08-30T06:03:16;6.67;;;3.33;;
10719;SDS011;5411;58.386;15.560;2023-08-30T06:05:44;4.70;;;3.27;;
10719;SDS011;5411;58.386;15.560;2023-08-30T06:08:16;7.17;;;3.13;;
10719;SDS011;5411;58.386;15.560;2023-08-30T06:10:51;5.20;;;3.57;;
10719;SDS011;5411;58.386;15.560;2023-08-30T06:13:19;4.70;;;2.67;;
10719;SDS011;5411;58.386;15.560;2023-08-30T06:15:50;3.67;;;3.13;;
10719;SDS011;5411;58.386;15.560;2023-08-30T06:18:19;5.80;;;2.33;;
10719;SDS011;5411;58.386;15.560;2023-08-30T06:20:47;2.70;;;2.33;;
10719;SDS011;5411;58.386;15.560;2023-08-30T06:23:19;6.37;;;2.60;;
10719;SDS011;5411;58.386;15.560;2023-08-30T06:25:54;3.93;;;2.30;;
10719;SDS011;5411;58.386;15.560;2023-08-30T06:28:23;8.20;;;2.63;;
10719;SDS011;5411;58.386;15.560;2023-08-30T06:30:52;5.10;;;2.33;;
10719;SDS011;5411;58.386;15.560;2023-08-30T06:33:20;3.30;;;2.40;;
10719;SDS011;5411;58.386;15.560;2023-08-30T06:35:48;5.93;;;2.50;;
10719;SDS011;5411;58.386;15.560;2023-08-30T06:38:18;4.37;;;2.43;;
10719;SDS011;5411;58.386;15.560;2023-08-30T06:40:47;4.17;;;2.23;;
10719;SDS011;5411;58.386;15.560;2023-08-30T06:43:16;3.33;;;2.10;;
10719;SDS011;5411;58.386;15.560;2023-08-30T06:45:44;5.27;;;2.60;;
10719;SDS011;5411;58.386;15.560;2023-08-30T06:48:13;4.43;;;2.57;;
10719;SDS011;5411;58.386;15.560;2023-08-30T06:50:42;3.80;;;2.23;;
10719;SDS011;5411;58.386;15.560;2023-08-30T06:53:10;2.83;;;2.20;;
10719;SDS011;5411;58.386;15.560;2023-08-30T06:55:40;5.10;;;2.57;;
10719;SDS011;5411;58.386;15.560;2023-08-30T06:58:11;3.60;;;1.90;;
10719;SDS011;5411;58.386;15.560;2023-08-30T07:00:39;4.50;;;2.20;;
10719;SDS011;5411;58.386;15.560;2023-08-30T07:03:07;5.97;;;2.37;;
10719;SDS011;5411;58.386;15.560;2023-08-30T07:05:37;2.87;;;1.90;;
10719;SDS011;5411;58.386;15.560;2023-08-30T07:08:05;6.03;;;2.30;;
10719;SDS011;5411;58.386;15.560;2023-08-30T07:10:34;3.00;;;2.40;;
10719;SDS011;5411;58.386;15.560;2023-08-30T07:13:03;2.87;;;1.93;;
10719;SDS011;5411;58.386;15.560;2023-08-30T07:15:36;4.00;;;2.30;;
10719;SDS011;5411;58.386;15.560;2023-08-30T07:18:09;3.90;;;1.93;;
10719;SDS011;5411;58.386;15.560;2023-08-30T07:20:38;2.77;;;2.20;;
10719;SDS011;5411;58.386;15.560;2023-08-30T07:23:07;2.77;;;2.27;;
10719;SDS011;5411;58.386;15.560;2023-08-30T07:25:37;3.93;;;2.13;;
10719;SDS011;5411;58.386;15.560;2023-08-30T07:28:07;2.70;;;2.00;;
10719;SDS011;5411;58.386;15.560;2023-08-30T07:30:36;3.47;;;2.40;;
10719;SDS011;5411;58.386;15.560;2023-08-30T07:33:04;2.87;;;2.10;;
10719;SDS011;5411;58.386;15.560;2023-08-30T07:35:33;3.97;;;2.43;;
10719;SDS011;5411;58.386;15.560;2023-08-30T07:38:02;4.10;;;2.33;;
10719;SDS011;5411;58.386;15.560;2023-08-30T07:40:30;3.53;;;1.90;;
10719;SDS011;5411;58.386;15.560;2023-08-30T07:42:58;6.57;;;2.33;;
10719;SDS011;5411;58.386;15.560;2023-08-30T07:45:28;3.83;;;2.10;;
10719;SDS011;5411;58.386;15.560;2023-08-30T07:47:57;2.67;;;1.90;;
10719;SDS011;5411;58.386;15.560;2023-08-30T07:50:25;5.70;;;2.07;;
10719;SDS011;5411;58.386;15.560;2023-08-30T07:52:54;5.23;;;1.80;;
10719;SDS011;5411;58.386;15.560;2023-08-30T07:55:22;4.47;;;1.90;;
10719;SDS011;5411;58.386;15.560;2023-08-30T07:57:50;3.37;;;1.93;;
10719;SDS011;5411;58.386;15.560;2023-08-30T08:00:18;2.90;;;1.77;;
10719;SDS011;5411;58.386;15.560;2023-08-30T08:02:48;3.47;;;1.83;;
10719;SDS011;5411;58.386;15.560;2023-08-30T08:05:17;2.60;;;1.83;;
10719;SDS011;5411;58.386;15.560;2023-08-30T08:07:45;3.17;;;2.00;;
10719;SDS011;5411;58.386;15.560;2023-08-30T08:10:15;3.80;;;2.10;;
10719;SDS011;5411;58.386;15.560;2023-08-30T08:12:45;4.50;;;1.90;;
10719;SDS011;5411;58.386;15.560;2023-08-30T08:15:15;3.90;;;2.10;;
10719;SDS011;5411;58.386;15.560;2023-08-30T08:17:44;4.43;;;2.00;;
10719;SDS011;5411;58.386;15.560;2023-08-30T08:20:14;2.37;;;1.73;;
10719;SDS011;5411;58.386;15.560;2023-08-30T08:22:42;4.93;;;2.07;;
10719;SDS011;5411;58.386;15.560;2023-08-30T08:25:11;2.80;;;1.70;;
10719;SDS011;5411;58.386;15.560;2023-08-30T08:27:40;4.67;;;1.67;;
10719;SDS011;5411;58.386;15.560;2023-08-30T08:30:10;4.33;;;1.80;;
10719;SDS011;5411;58.386;15.560;2023-08-30T08:32:39;3.57;;;1.83;;
10719;SDS011;5411;58.386;15.560;2023-08-30T08:35:09;3.57;;;1.77;;
10719;SDS011;5411;58.386;15.560;2023-08-30T08:37:39;3.20;;;1.90;;
10719;SDS011;5411;58.386;15.560;2023-08-30T08:40:09;2.80;;;1.93;;
10719;SDS011;5411;58.386;15.560;2023-08-30T08:42:38;3.40;;;1.90;;
10719;SDS011;5411;58.386;15.560;2023-08-30T08:45:09;3.53;;;1.87;;
10719;SDS011;5411;58.386;15.560;2023-08-30T08:47:38;1.67;;;1.43;;
10719;SDS011;5411;58.386;15.560;2023-08-30T08:50:07;2.07;;;1.80;;
10719;SDS011;5411;58.386;15.560;2023-08-30T08:52:36;2.63;;;1.93;;
10719;SDS011;5411;58.386;15.560;2023-08-30T08:55:26;3.07;;;1.50;;
10719;SDS011;5411;58.386;15.560;2023-08-30T08:57:57;2.23;;;1.70;;
10719;SDS011;5411;58.386;15.560;2023-08-30T09:00:26;6.40;;;1.90;;
10719;SDS011;5411;58.386;15.560;2023-08-30T09:02:55;3.63;;;1.80;;
10719;SDS011;5411;58.386;15.560;2023-08-30T09:05:24;4.03;;;2.20;;
10719;SDS011;5411;58.386;15.560;2023-08-30T09:07:53;1.80;;;1.50;;
10719;SDS011;5411;58.386;15.560;2023-08-30T09:10:22;2.10;;;1.50;;
10719;SDS011;5411;58.386;15.560;2023-08-30T09:12:52;1.47;;;1.37;;
10719;SDS011;5411;58.386;15.560;2023-08-30T09:15:20;2.13;;;1.47;;
10719;SDS011;5411;58.386;15.560;2023-08-30T09:17:49;3.93;;;1.77;;
10719;SDS011;5411;58.386;15.560;2023-08-30T09:20:17;2.87;;;1.60;;
10719;SDS011;5411;58.386;15.560;2023-08-30T09:22:51;2.57;;;1.60;;
10719;SDS011;5411;58.386;15.560;2023-08-30T09:25:25;2.87;;;1.60;;
10719;SDS011;5411;58.386;15.560;2023-08-30T09:28:00;2.60;;;1.77;;
10719;SDS011;5411;58.386;15.560;2023-08-30T09:30:28;2.47;;;1.67;;
10719;SDS011;5411;58.386;15.560;2023-08-30T09:33:01;1.67;;;1.50;;
10719;SDS011;5411;58.386;15.560;2023-08-30T09:35:31;2.53;;;1.60;;
10719;SDS011;5411;58.386;15.560;2023-08-30T09:37:59;2.60;;;1.73;;
10719;SDS011;5411;58.386;15.560;2023-08-30T09:40:27;2.17;;;1.60;;
10719;SDS011;5411;58.386;15.560;2023-08-30T09:42:59;3.30;;;1.53;;
10719;SDS011;5411;58.386;15.560;2023-08-30T09:45:42;3.00;;;1.30;;
10719;SDS011;5411;58.386;15.560;2023-08-30T09:48:10;1.47;;;1.30;;
10719;SDS011;5411;58.386;15.560;2023-08-30T09:50:42;1.50;;;1.30;;
10719;SDS011;5411;58.386;15.560;2023-08-30T09:53:17;2.37;;;1.40;;
10719;SDS011;5411;58.386;15.560;2023-08-30T09:55:49;2.40;;;1.60;;
10719;SDS011;5411;58.386;15.560;2023-08-30T09:58:20;1.47;;;1.33;;
10719;SDS011;5411;58.386;15.560;2023-08-30T10:00:57;3.10;;;1.60;;
10719;SDS011;5411;58.386;15.560;2023-08-30T10:03:30;3.20;;;1.70;;
10719;SDS011;5411;58.386;15.560;2023-08-30T10:06:01;3.50;;;2.00;;
10719;SDS011;5411;58.386;15.560;2023-08-30T10:08:32;1.37;;;1.23;;
10719;SDS011;5411;58.386;15.560;2023-08-30T10:11:03;1.30;;;1.20;;
10719;SDS011;5411;58.386;15.560;2023-08-30T10:13:36;2.70;;;1.60;;
10719;SDS011;5411;58.386;15.560;2023-08-30T10:16:12;2.07;;;1.43;;
10719;SDS011;5411;58.386;15.560;2023-08-30T10:18:47;2.83;;;1.40;;
10719;SDS011;5411;58.386;15.560;2023-08-30T10:21:30;3.93;;;1.50;;
10719;SDS011;5411;58.386;15.560;2023-08-30T10:24:03;2.33;;;1.90;;
10719;SDS011;5411;58.386;15.560;2023-08-30T10:26:55;2.63;;;1.80;;
10719;SDS011;5411;58.386;15.560;2023-08-30T10:29:28;2.27;;;1.50;;
10719;SDS011;5411;58.386;15.560;2023-08-30T10:32:01;2.30;;;1.70;;
10719;SDS011;5411;58.386;15.560;2023-08-30T10:34:31;3.20;;;1.60;;
10719;SDS011;5411;58.386;15.560;2023-08-30T10:37:06;2.90;;;1.70;;
10719;SDS011;5411;58.386;15.560;2023-08-30T10:39:39;2.10;;;1.60;;
10719;SDS011;5411;58.386;15.560;2023-08-30T10:42:09;3.73;;;1.50;;
10719;SDS011;5411;58.386;15.560;2023-08-30T10:44:51;2.27;;;1.50;;
10719;SDS011;5411;58.386;15.560;2023-08-30T10:47:42;3.47;;;1.87;;
10719;SDS011;5411;58.386;15.560;2023-08-30T10:50:11;1.87;;;1.67;;
10719;SDS011;5411;58.386;15.560;2023-08-30T10:52:40;3.83;;;1.80;;
10719;SDS011;5411;58.386;15.560;2023-08-30T10:55:11;1.80;;;1.27;;
10719;SDS011;5411;58.386;15.560;2023-08-30T10:57:41;1.80;;;1.60;;
10719;SDS011;5411;58.386;15.560;2023-08-30T11:00:20;1.50;;;1.40;;
10719;SDS011;5411;58.386;15.560;2023-08-30T11:02:49;1.47;;;1.37;;
10719;SDS011;5411;58.386;15.560;2023-08-30T11:05:21;1.43;;;1.30;;
10719;SDS011;5411;58.386;15.560;2023-08-30T11:07:52;1.50;;;1.40;;
10719;SDS011;5411;58.386;15.560;2023-08-30T11:10:21;1.57;;;1.23;;
10719;SDS011;5411;58.386;15.560;2023-08-30T11:12:52;3.27;;;1.40;;
10719;SDS011;5411;58.386;15.560;2023-08-30T11:15:22;1.37;;;1.27;;
10719;SDS011;5411;58.386;15.560;2023-08-30T11:18:02;1.90;;;1.40;;
10719;SDS011;5411;58.386;15.560;2023-08-30T11:20:31;1.30;;;1.20;;
10719;SDS011;5411;58.386;15.560;2023-08-30T11:23:05;1.37;;;1.27;;
10719;SDS011;5411;58.386;15.560;2023-08-30T11:25:34;1.30;;;1.20;;
10719;SDS011;5411;58.386;15.560;2023-08-30T11:28:05;2.00;;;1.30;;
10719;SDS011;5411;58.386;15.560;2023-08-30T11:30:35;2.00;;;1.30;;
10719;SDS011;5411;58.386;15.560;2023-08-30T11:33:08;2.17;;;1.30;;
10719;SDS011;5411;58.386;15.560;2023-08-30T11:35:37;1.50;;;1.40;;
10719;SDS011;5411;58.386;15.560;2023-08-30T11:38:07;1.90;;;1.40;;
10719;SDS011;5411;58.386;15.560;2023-08-30T11:40:36;1.70;;;1.60;;
10719;SDS011;5411;58.386;15.560;2023-08-30T11:43:05;3.53;;;1.47;;
10719;SDS011;5411;58.386;15.560;2023-08-30T11:45:42;2.07;;;1.67;;
10719;SDS011;5411;58.386;15.560;2023-08-30T11:48:13;1.10;;;1.00;;
10719;SDS011;5411;58.386;15.560;2023-08-30T11:50:48;1.80;;;1.70;;
10719;SDS011;5411;58.386;15.560;2023-08-30T11:53:17;2.30;;;1.50;;
10719;SDS011;5411;58.386;15.560;2023-08-30T11:55:45;2.50;;;1.90;;
10719;SDS011;5411;58.386;15.560;2023-08-30T11:58:14;1.63;;;1.50;;
10719;SDS011;5411;58.386;15.560;2023-08-30T12:00:48;2.90;;;1.60;;
10719;SDS011;5411;58.386;15.560;2023-08-30T12:03:18;2.37;;;1.63;;
10719;SDS011;5411;58.386;15.560;2023-08-30T12:05:47;2.43;;;1.90;;
10719;SDS011;5411;58.386;15.560;2023-08-30T12:08:17;1.97;;;1.77;;
10719;SDS011;5411;58.386;15.560;2023-08-30T12:10:49;3.27;;;1.77;;
10719;SDS011;5411;58.386;15.560;2023-08-30T12:13:21;3.30;;;1.73;;
10719;SDS011;5411;58.386;15.560;2023-08-30T12:15:53;1.77;;;1.67;;
10719;SDS011;5411;58.386;15.560;2023-08-30T12:18:23;2.10;;;1.67;;
10719;SDS011;5411;58.386;15.560;2023-08-30T12:20:58;2.10;;;1.83;;
10719;SDS011;5411;58.386;15.560;2023-08-30T12:23:28;2.80;;;1.93;;
10719;SDS011;5411;58.386;15.560;2023-08-30T12:25:58;4.37;;;1.70;;
10719;SDS011;5411;58.386;15.560;2023-08-30T12:28:27;3.30;;;1.90;;
10719;SDS011;5411;58.386;15.560;2023-08-30T12:30:58;1.70;;;1.60;;
10719;SDS011;5411;58.386;15.560;2023-08-30T12:33:29;2.37;;;1.77;;
10719;SDS011;5411;58.386;15.560;2023-08-30T12:35:59;2.57;;;1.60;;
10719;SDS011;5411;58.386;15.560;2023-08-30T12:38:36;2.53;;;1.90;;
10719;SDS011;5411;58.386;15.560;2023-08-30T12:41:05;1.50;;;1.40;;
10719;SDS011;5411;58.386;15.560;2023-08-30T12:43:34;2.03;;;1.60;;
10719;SDS011;5411;58.386;15.560;2023-08-30T12:46:04;2.97;;;1.70;;
10719;SDS011;5411;58.386;15.560;2023-08-30T12:48:36;2.50;;;2.30;;
10719;SDS011;5411;58.386;15.560;2023-08-30T12:51:04;1.70;;;1.60;;
10719;SDS011;5411;58.386;15.560;2023-08-30T12:53:36;4.10;;;1.83;;
10719;SDS011;5411;58.386;15.560;2023-08-30T12:56:07;2.23;;;1.50;;
10719;SDS011;5411;58.386;15.560;2023-08-30T12:58:37;1.90;;;1.80;;
10719;SDS011;5411;58.386;15.560;2023-08-30T13:01:07;2.80;;;1.47;;
10719;SDS011;5411;58.386;15.560;2023-08-30T13:03:36;3.53;;;1.60;;
10719;SDS011;5411;58.386;15.560;2023-08-30T13:06:06;2.30;;;1.50;;
10719;SDS011;5411;58.386;15.560;2023-08-30T13:08:35;2.43;;;1.70;;
10719;SDS011;5411;58.386;15.560;2023-08-30T13:11:04;1.90;;;1.47;;
10719;SDS011;5411;58.386;15.560;2023-08-30T13:13:32;1.60;;;1.47;;
10719;SDS011;5411;58.386;15.560;2023-08-30T13:16:00;1.30;;;1.20;;
10719;SDS011;5411;58.386;15.560;2023-08-30T13:18:31;2.10;;;1.53;;
10719;SDS011;5411;58.386;15.560;2023-08-30T13:21:01;1.33;;;1.23;;
10719;SDS011;5411;58.386;15.560;2023-08-30T13:23:31;2.53;;;1.70;;
10719;SDS011;5411;58.386;15.560;2023-08-30T13:26:00;1.83;;;1.30;;
10719;SDS011;5411;58.386;15.560;2023-08-30T13:28:30;2.67;;;1.47;;
10719;SDS011;5411;58.386;15.560;2023-08-30T13:30:59;2.80;;;1.50;;
10719;SDS011;5411;58.386;15.560;2023-08-30T13:33:31;1.50;;;1.37;;
10719;SDS011;5411;58.386;15.560;2023-08-30T13:36:01;1.63;;;1.50;;
10719;SDS011;5411;58.386;15.560;2023-08-30T13:38:32;1.87;;;1.53;;
10719;SDS011;5411;58.386;15.560;2023-08-30T13:41:04;1.60;;;1.17;;
10719;SDS011;5411;58.386;15.560;2023-08-30T13:43:36;2.47;;;1.90;;
10719;SDS011;5411;58.386;15.560;2023-08-30T13:46:10;3.97;;;1.50;;
10719;SDS011;5411;58.386;15.560;2023-08-30T13:48:40;1.57;;;1.47;;
10719;SDS011;5411;58.386;15.560;2023-08-30T13:51:10;1.33;;;1.23;;
10719;SDS011;5411;58.386;15.560;2023-08-30T13:53:38;1.70;;;1.60;;
10719;SDS011;5411;58.386;15.560;2023-08-30T13:56:07;1.93;;;1.83;;
10719;SDS011;5411;58.386;15.560;2023-08-30T13:58:35;1.60;;;1.30;;
10719;SDS011;5411;58.386;15.560;2023-08-30T14:01:04;2.33;;;1.83;;
10719;SDS011;5411;58.386;15.560;2023-08-30T14:03:32;3.80;;;1.70;;
10719;SDS011;5411;58.386;15.560;2023-08-30T14:06:02;2.07;;;1.53;;
10719;SDS011;5411;58.386;15.560;2023-08-30T14:08:36;2.23;;;1.70;;
10719;SDS011;5411;58.386;15.560;2023-08-30T14:11:07;1.80;;;1.67;;
10719;SDS011;5411;58.386;15.560;2023-08-30T14:13:36;1.50;;;1.40;;
10719;SDS011;5411;58.386;15.560;2023-08-30T14:16:04;3.33;;;1.50;;
10719;SDS011;5411;58.386;15.560;2023-08-30T14:18:32;2.13;;;1.60;;
10719;SDS011;5411;58.386;15.560;2023-08-30T14:21:01;2.00;;;1.90;;
10719;SDS011;5411;58.386;15.560;2023-08-30T14:23:31;1.80;;;1.67;;
10719;SDS011;5411;58.386;15.560;2023-08-30T14:26:02;3.00;;;1.80;;
10719;SDS011;5411;58.386;15.560;2023-08-30T14:28:38;1.53;;;1.43;;
10719;SDS011;5411;58.386;15.560;2023-08-30T14:48:50;2.33;;;1.33;;
10719;SDS011;5411;58.386;15.560;2023-08-30T14:51:33;2.30;;;1.70;;
10719;SDS011;5411;58.386;15.560;2023-08-30T14:54:04;1.70;;;1.50;;
10719;SDS011;5411;58.386;15.560;2023-08-30T14:56:33;2.33;;;1.77;;
10719;SDS011;5411;58.386;15.560;2023-08-30T14:59:01;2.23;;;1.63;;
10719;SDS011;5411;58.386;15.560;2023-08-30T15:01:30;3.90;;;2.07;;
10719;SDS011;5411;58.386;15.560;2023-08-30T15:04:00;1.37;;;1.27;;
10719;SDS011;5411;58.386;15.560;2023-08-30T15:06:29;1.50;;;1.37;;
10719;SDS011;5411;58.386;15.560;2023-08-30T15:08:58;1.70;;;1.60;;
10719;SDS011;5411;58.386;15.560;2023-08-30T15:11:28;1.43;;;1.30;;
10719;SDS011;5411;58.386;15.560;2023-08-30T15:13:57;2.27;;;1.43;;
10719;SDS011;5411;58.386;15.560;2023-08-30T15:16:27;1.70;;;1.60;;
10719;SDS011;5411;58.386;15.560;2023-08-30T15:18:56;1.67;;;1.57;;
10719;SDS011;5411;58.386;15.560;2023-08-30T15:21:26;3.00;;;1.50;;
10719;SDS011;5411;58.386;15.560;2023-08-30T15:24:00;2.37;;;1.77;;